Terminal Aerodrome Forecast
Issued by NWS Wilmington, OH

Current Version | Previous Version | Text Only | Print | Product List | Glossary Off
Versions: 1 2 3 4 5 6 7 8 9 10 11 12 13 14 15 16 17

000
FTUS41 KILN 242333
TAFILN
TAF
KILN 242333Z 2500/2524 24008KT P6SM SKC
     FM251100 27008KT P6SM SCT040
     FM251500 29011G19KT P6SM BKN040
     FM252300 31005KT P6SM BKN040=

USA.gov is the U.S. government's official web portal to all federal, state and local government web resources and services.